Central Sierra Snow Lab Weather observations

Data are for 10 minute period ending at time listed.
 Day   Time    Incoming  Reflected   Ave.   Ave.    Ave.    Vector  Max.    Ave.    Total    Snow   
  of    of      Solar     Solar      Air    Rel.    Wind    Wind    Wind   Baro.   Precip.   Depth  
Year   Day     Radiation Radiation   Temp.  Humid.  Speed   Dir.    Gust   Press.                   
2014   (PST)    Kw/m2     Kw/m2       F       %      mph     deg.    mph     mb.     in.      in.   
----------------------------------------------------------------------------------------------------
 297    0:00    0.000     999.000     43.8     51     1.5     204     6.8   792.90   17.81   -358.80  
 297    0:10    0.000     999.000     43.9     51     1.7     204     4.7   793.00   17.81   -358.80  
 297    0:20    0.000     999.000     43.9     51     0.9     219     3.2   793.00   17.81   -358.80  
 297    0:30    0.000     999.000     43.5     52     0.7     175     2.2   793.00   17.81   -358.80  
 297    0:40    0.000     999.000     43.4     53     1.5     167     4.7   792.90   17.81   -358.80  
 297    0:50    0.000     999.000     43.6     52     1.4     162     3.6   792.90   17.81   -358.80  
 297    1:00    0.000     999.000     43.9     52     1.1     202     3.5   792.80   17.81   -358.80  
 297    1:10    0.000     999.000     44.0     51     1.6     192     6.3   792.80   17.81   -358.80  
 297    1:20    0.000     999.000     44.0     51     0.8     122     5.0   792.70   17.81   -358.90  
 297    1:30    0.000     999.000     43.4     53     0.4     303     2.1   792.70   17.81   -358.80  
 297    1:40    0.000     999.000     42.8     54     1.3     281     5.6   792.70   17.81   -358.80  
 297    1:50    0.000     999.000     43.2     53     0.8     318     3.9   792.70   17.81   -358.80  
 297    2:00    0.000     999.000     43.4     52     1.5     228     7.5   792.60   17.81   -358.90  
 297    2:10    0.000     999.000     43.1     54     1.1      50     2.6   792.60   17.81   -358.90  
 297    2:20    0.000     999.000     41.6     57     1.5      12     3.2   792.50   17.81   -358.90  
 297    2:30    0.000     999.000     41.4     57     1.3      46     2.6   792.50   17.81   -358.90  
 297    2:40    0.000     999.000     42.2     54     1.0      46     3.2   792.50   17.81   -358.90  
 297    2:50    0.000     999.000     41.1     57     1.6      36     3.7   792.40   17.81   -358.90  
 297    3:00    0.000     999.000     41.1     57     1.4      37     4.6   792.30   17.81   -358.90  
 297    3:10    0.000     999.000     42.6     53     0.8     322     3.2   792.30   17.81   -358.80  
 297    3:20    0.000     999.000     42.9     52     1.9     271     6.5   792.30   17.81   -358.80  
 297    3:30    0.000     999.000     42.4     53     1.5     291     3.6   792.20   17.81   -358.80  
 297    3:40    0.000     999.000     43.2     50     1.4     261     4.4   792.20   17.81   -358.80  
 297    3:50    0.000     999.000     43.8     48     1.6     261     5.1   792.30   17.81   -358.80  
 297    4:00    0.000     999.000     44.5     47     1.6     266     5.4   792.30   17.81   -358.80  
 297    4:10    0.000     999.000     44.3     47     1.5     327     4.4   792.40   17.81   -358.90  
 297    4:20    0.000     999.000     44.3     47     1.8     226     5.2   792.40   17.81   -358.80  
 297    4:30    0.000     999.000     44.2     48     1.5     266     5.2   792.50   17.81   -358.80  
 297    4:40    0.000     999.000     44.3     48     0.7     110     4.2   792.50   17.81   -358.80  
 297    4:50    0.000     999.000     43.8     49     1.6     354     4.7   792.50   17.81   -358.80  
 297    5:00    0.000     999.000     43.1     51     2.7      32     4.9   792.50   17.81   -358.90  
 297    5:10    0.000     999.000     41.9     54     1.9      34     3.7   792.60   17.81   -358.90  
 297    5:20    0.000     999.000     42.8     52     1.3      39     4.7   792.70   17.81   -358.90  
 297    5:30    0.000     999.000     41.8     56     2.5      21     5.1   792.60   17.81   -358.90  
 297    5:40    0.000     999.000     40.7     59     2.7      26     4.7   792.60   17.81   -358.90  
 297    5:50    0.000     999.000     39.9     60     3.1      18     8.1   792.70   17.81   -358.90  
 297    6:00    0.000     999.000     40.5     59     2.0      23     3.7   792.70   17.81   -358.90  
 297    6:10    0.000     999.000     39.0     64     2.6      33     5.5   792.80   17.81   -358.90  
 297    6:20    0.001     999.000     38.4     65     3.1      23     5.1   792.80   17.81   -358.90  
 297    6:30    0.003     999.000     38.1     66     3.3      29     5.5   792.90   17.81   -358.90  
 297    6:40    0.005     999.000     37.8     66     2.5      29     4.6   792.90   17.81   -358.90  
 297    6:50    0.007     999.000     39.0     63     2.4      28     4.9   792.90   17.81   -358.90  
 297    7:00    0.008     999.000     38.9     63     2.8      28     4.7   793.00   17.81   -358.90  
 297    7:10    0.009     999.000     38.9     63     2.5      23     4.7   793.10   17.81   -358.90  
 297    7:20    0.010     999.000     39.9     60     1.9      23     3.6   793.10   17.81   -358.90  
 297    7:30    0.011     999.000     41.4     55     1.2       3     4.6   793.10   17.81   -358.90  
 297    7:40    0.013     999.000     42.9     51     0.9      92     3.2   793.10   17.81   -358.90  
 297    7:50    0.018     999.000     45.3     45     2.1     210     7.6   793.20   17.81   -358.80  
 297    8:00    0.017     999.000     46.4     44     1.4     260     6.6   793.30   17.81   -358.80  
 297    8:10    0.018     999.000     46.9     42     1.4     199     5.7   793.30   17.81   -358.80  
 297    8:20    0.023     999.000     48.0     40     1.7     247     4.8   793.30   17.81   -358.80  
 297    8:30    0.031     999.000     49.2     38     3.4     197     8.6   793.30   17.81   -358.80  
 297    8:40    0.247     999.000     50.1     37     2.9     227     7.4   793.20   17.81   -358.80  
 297    8:50    0.381     999.000     51.7     34     3.6     208     9.6   793.30   17.81   -358.80  
 297    9:00    0.407     999.000     51.8     35     2.5     225     7.2   793.30   17.81   -358.80  
 297    9:10    0.431     999.000     52.3     35     2.9     220     8.9   793.20   17.81   -358.80  
 297    9:20    0.454     999.000     53.2     34     3.4     214    11.2   793.30   17.80   -358.90  
 297    9:30    0.476     999.000     53.7     33     3.1     223    11.8   793.30   17.81   -358.90  
 297    9:40    0.500     999.000     54.2     32     4.0     233     9.5   793.20   17.80   -358.90  
 297    9:50    0.530     999.000     54.5     33     3.6     213     9.8   793.20   17.81   -358.90  
 297   10:00    0.558     999.000     55.5     32     3.5     207    13.6   793.10   17.81   -358.80  
 297   10:10    0.576     999.000     56.1     32     3.9     227     9.4   793.00   17.81   -358.80  
 297   10:20    0.584     999.000     56.5     31     4.4     217    16.9   793.00   17.81   -358.80  
 297   10:30    0.587     999.000     57.3     32     3.8     214    10.3   792.90   17.81   -358.80  
 297   10:40    0.599     999.000     57.5     31     3.7     218    12.2   792.80   17.81   -358.80  
 297   10:50    0.610     999.000     57.7     31     4.6     197    14.1   792.80   17.81   -358.80  
 297   11:00    0.620     999.000     58.4     30     4.1     198    13.9   792.60   17.81   -358.80  
 297   11:10    0.629     999.000     58.4     30     4.4     194    13.2   792.60   17.81   -358.80  
 297   11:20    0.637     999.000     58.5     29     4.6     209    10.6   792.50   17.81   -358.80  
 297   11:30    0.643     999.000     59.2     29     4.1     225     9.9   792.40   17.81   -358.80  
 297   11:40    0.648     999.000     59.8     28     4.9     201    14.9   792.30   17.81   -358.80  
 297   11:50    0.650     999.000     60.4     28     3.9     211    10.8   792.10   17.80   -358.80  
 297   12:00    0.652     999.000     60.7     27     4.2     230    11.0   792.10   17.80   -358.80  
 297   12:10    0.652     999.000     60.6     27     4.1     227     9.1   791.90   17.80   -358.80  
 297   12:20    0.648     999.000     60.6     26     4.0     219    14.8   791.80   17.80   -358.80  
 297   12:30    0.642     999.000     60.9     26     4.1     217    10.8   791.70   17.80   -358.80  
 297   12:40    0.636     999.000     61.4     25     4.4     237    13.0   791.60   17.80   -358.80  
 297   12:50    0.627     999.000     61.7     25     3.5     216     8.6   791.50   17.80   -358.80  
 297   13:00    0.618     999.000     61.4     26     4.4     210     9.9   791.40   17.81   -358.80  
 297   13:10    0.608     999.000     62.0     25     3.4     214     8.1   791.30   17.81   -358.80  
 297   13:20    0.595     999.000     61.6     24     4.7     230    14.0   791.30   17.81   -358.80  
 297   13:30    0.581     999.000     61.3     25     5.2     212    12.3   791.30   17.81   -358.80  
 297   13:40    0.566     999.000     61.5     25     4.6     219    11.3   791.20   17.81   -358.80  
 297   13:50    0.550     999.000     61.4     25     4.7     214    11.5   791.20   17.81   -358.80  
 297   14:00    0.523     999.000     61.3     25     2.9     220     5.7   791.30   17.81   -358.80  

Return to Central Sierra Snow Lab graphs page.


Western Regional Climate Center,wrcc@dri.edu